sensor_id;sensor_type;location;lat;lon;timestamp;temperature;humidity
28773;DHT22;15925;51.222;5.678;2022-10-16T00:01:36;14.10;99.90
28773;DHT22;15925;51.222;5.678;2022-10-16T00:04:02;14.20;99.90
28773;DHT22;15925;51.222;5.678;2022-10-16T00:06:29;14.10;99.90
28773;DHT22;15925;51.222;5.678;2022-10-16T00:08:56;14.10;99.90
28773;DHT22;15925;51.222;5.678;2022-10-16T00:11:32;14.10;99.90
28773;DHT22;15925;51.222;5.678;2022-10-16T00:14:00;14.10;99.90
28773;DHT22;15925;51.222;5.678;2022-10-16T00:16:27;14.10;99.90
28773;DHT22;15925;51.222;5.678;2022-10-16T00:18:53;14.20;99.90
28773;DHT22;15925;51.222;5.678;2022-10-16T00:21:25;14.10;99.90
28773;DHT22;15925;51.222;5.678;2022-10-16T00:23:56;14.20;99.90
28773;DHT22;15925;51.222;5.678;2022-10-16T00:26:23;14.20;99.90
28773;DHT22;15925;51.222;5.678;2022-10-16T00:28:50;14.20;99.90
28773;DHT22;15925;51.222;5.678;2022-10-16T00:31:18;14.20;99.90
28773;DHT22;15925;51.222;5.678;2022-10-16T00:33:44;14.20;99.90
28773;DHT22;15925;51.222;5.678;2022-10-16T00:36:12;14.20;99.90
28773;DHT22;15925;51.222;5.678;2022-10-16T00:38:39;14.20;99.90
28773;DHT22;15925;51.222;5.678;2022-10-16T00:41:06;14.10;99.90
28773;DHT22;15925;51.222;5.678;2022-10-16T00:43:44;14.10;99.90
28773;DHT22;15925;51.222;5.678;2022-10-16T00:46:16;14.10;99.90
28773;DHT22;15925;51.222;5.678;2022-10-16T00:51:24;14.20;99.90
28773;DHT22;15925;51.222;5.678;2022-10-16T00:53:51;14.10;99.90
28773;DHT22;15925;51.222;5.678;2022-10-16T00:56:17;14.20;99.90
28773;DHT22;15925;51.222;5.678;2022-10-16T00:58:43;14.20;99.90
28773;DHT22;15925;51.222;5.678;2022-10-16T01:01:09;14.10;99.90
28773;DHT22;15925;51.222;5.678;2022-10-16T01:03:36;14.10;99.90
28773;DHT22;15925;51.222;5.678;2022-10-16T01:06:25;14.10;99.90
28773;DHT22;15925;51.222;5.678;2022-10-16T01:15:04;14.00;99.90
28773;DHT22;15925;51.222;5.678;2022-10-16T01:17:15;14.00;99.90
28773;DHT22;15925;51.222;5.678;2022-10-16T01:22:37;13.90;99.90
28773;DHT22;15925;51.222;5.678;2022-10-16T01:25:11;14.00;99.90
28773;DHT22;15925;51.222;5.678;2022-10-16T01:27:39;13.90;99.90
28773;DHT22;15925;51.222;5.678;2022-10-16T01:30:26;13.90;99.90
28773;DHT22;15925;51.222;5.678;2022-10-16T01:35:25;13.80;99.90
28773;DHT22;15925;51.222;5.678;2022-10-16T01:38:00;13.80;99.90
28773;DHT22;15925;51.222;5.678;2022-10-16T01:40:28;13.80;99.90
28773;DHT22;15925;51.222;5.678;2022-10-16T01:43:07;13.80;99.90
28773;DHT22;15925;51.222;5.678;2022-10-16T01:45:34;13.70;99.90
28773;DHT22;15925;51.222;5.678;2022-10-16T01:48:02;13.80;99.90
28773;DHT22;15925;51.222;5.678;2022-10-16T01:50:33;13.70;99.90
28773;DHT22;15925;51.222;5.678;2022-10-16T01:53:02;13.70;99.90
28773;DHT22;15925;51.222;5.678;2022-10-16T01:55:32;13.70;99.90
28773;DHT22;15925;51.222;5.678;2022-10-16T01:58:01;13.70;99.90
28773;DHT22;15925;51.222;5.678;2022-10-16T02:00:28;13.70;99.90
28773;DHT22;15925;51.222;5.678;2022-10-16T02:02:54;13.70;99.90
28773;DHT22;15925;51.222;5.678;2022-10-16T02:05:25;13.70;99.90
28773;DHT22;15925;51.222;5.678;2022-10-16T02:07:53;13.60;99.90
28773;DHT22;15925;51.222;5.678;2022-10-16T02:10:19;13.70;99.90
28773;DHT22;15925;51.222;5.678;2022-10-16T02:12:49;13.70;99.90
28773;DHT22;15925;51.222;5.678;2022-10-16T02:15:16;13.70;99.90
28773;DHT22;15925;51.222;5.678;2022-10-16T02:17:42;13.70;99.90
28773;DHT22;15925;51.222;5.678;2022-10-16T02:20:08;13.70;99.90
28773;DHT22;15925;51.222;5.678;2022-10-16T02:22:37;13.60;99.90
28773;DHT22;15925;51.222;5.678;2022-10-16T02:25:15;13.60;99.90
28773;DHT22;15925;51.222;5.678;2022-10-16T02:30:34;13.60;99.90
28773;DHT22;15925;51.222;5.678;2022-10-16T02:33:03;13.50;99.90
28773;DHT22;15925;51.222;5.678;2022-10-16T02:35:31;13.60;99.90
28773;DHT22;15925;51.222;5.678;2022-10-16T02:37:57;13.50;99.90
28773;DHT22;15925;51.222;5.678;2022-10-16T02:40:24;13.60;99.90
28773;DHT22;15925;51.222;5.678;2022-10-16T02:42:51;13.60;99.90
28773;DHT22;15925;51.222;5.678;2022-10-16T02:45:17;13.50;99.90
28773;DHT22;15925;51.222;5.678;2022-10-16T02:47:43;13.60;99.90
28773;DHT22;15925;51.222;5.678;2022-10-16T02:50:09;13.60;99.90
28773;DHT22;15925;51.222;5.678;2022-10-16T02:52:35;13.60;99.90
28773;DHT22;15925;51.222;5.678;2022-10-16T02:55:01;13.60;99.90
28773;DHT22;15925;51.222;5.678;2022-10-16T02:57:27;13.50;99.90
28773;DHT22;15925;51.222;5.678;2022-10-16T02:59:53;13.60;99.90
28773;DHT22;15925;51.222;5.678;2022-10-16T03:02:19;13.60;99.90
28773;DHT22;15925;51.222;5.678;2022-10-16T03:04:44;13.60;99.90
28773;DHT22;15925;51.222;5.678;2022-10-16T03:07:10;13.60;99.90
28773;DHT22;15925;51.222;5.678;2022-10-16T03:09:36;13.60;99.90
28773;DHT22;15925;51.222;5.678;2022-10-16T03:12:02;13.50;99.90
28773;DHT22;15925;51.222;5.678;2022-10-16T03:14:28;13.60;99.90
28773;DHT22;15925;51.222;5.678;2022-10-16T03:16:54;13.50;99.90
28773;DHT22;15925;51.222;5.678;2022-10-16T03:19:19;13.50;99.90
28773;DHT22;15925;51.222;5.678;2022-10-16T03:21:45;13.50;99.90
28773;DHT22;15925;51.222;5.678;2022-10-16T03:24:11;13.60;99.90
28773;DHT22;15925;51.222;5.678;2022-10-16T03:26:37;13.60;99.90
28773;DHT22;15925;51.222;5.678;2022-10-16T03:29:03;13.60;99.90
28773;DHT22;15925;51.222;5.678;2022-10-16T03:31:32;13.60;99.90
28773;DHT22;15925;51.222;5.678;2022-10-16T03:33:58;13.60;99.90
28773;DHT22;15925;51.222;5.678;2022-10-16T03:36:23;13.60;99.90
28773;DHT22;15925;51.222;5.678;2022-10-16T03:38:49;13.60;99.90
28773;DHT22;15925;51.222;5.678;2022-10-16T03:41:15;13.60;99.90
28773;DHT22;15925;51.222;5.678;2022-10-16T03:43:41;13.70;99.90
28773;DHT22;15925;51.222;5.678;2022-10-16T03:46:07;13.70;99.90
28773;DHT22;15925;51.222;5.678;2022-10-16T03:48:32;13.70;99.90
28773;DHT22;15925;51.222;5.678;2022-10-16T03:50:58;13.60;99.90
28773;DHT22;15925;51.222;5.678;2022-10-16T03:53:24;13.60;99.90
28773;DHT22;15925;51.222;5.678;2022-10-16T03:55:50;13.70;99.90
28773;DHT22;15925;51.222;5.678;2022-10-16T03:58:16;13.70;99.90
28773;DHT22;15925;51.222;5.678;2022-10-16T04:00:45;13.70;99.90
28773;DHT22;15925;51.222;5.678;2022-10-16T04:03:12;13.60;99.90
28773;DHT22;15925;51.222;5.678;2022-10-16T04:05:38;13.70;99.90
28773;DHT22;15925;51.222;5.678;2022-10-16T04:08:04;13.70;99.90
28773;DHT22;15925;51.222;5.678;2022-10-16T04:10:30;13.70;99.90
28773;DHT22;15925;51.222;5.678;2022-10-16T04:12:55;13.70;99.90
28773;DHT22;15925;51.222;5.678;2022-10-16T04:15:25;13.70;99.90
28773;DHT22;15925;51.222;5.678;2022-10-16T04:17:51;13.60;99.90
28773;DHT22;15925;51.222;5.678;2022-10-16T04:20:17;13.70;99.90
28773;DHT22;15925;51.222;5.678;2022-10-16T04:22:43;13.60;99.90
28773;DHT22;15925;51.222;5.678;2022-10-16T04:25:10;13.60;99.90
28773;DHT22;15925;51.222;5.678;2022-10-16T04:27:37;13.60;99.90
28773;DHT22;15925;51.222;5.678;2022-10-16T04:30:03;13.60;99.90
28773;DHT22;15925;51.222;5.678;2022-10-16T04:32:30;13.60;99.90
28773;DHT22;15925;51.222;5.678;2022-10-16T04:34:56;13.60;99.90
28773;DHT22;15925;51.222;5.678;2022-10-16T04:37:26;13.60;99.90
28773;DHT22;15925;51.222;5.678;2022-10-16T04:39:52;13.60;99.90
28773;DHT22;15925;51.222;5.678;2022-10-16T04:42:18;13.60;99.90
28773;DHT22;15925;51.222;5.678;2022-10-16T04:44:44;13.60;99.90
28773;DHT22;15925;51.222;5.678;2022-10-16T04:47:10;13.60;99.90
28773;DHT22;15925;51.222;5.678;2022-10-16T04:49:36;13.60;99.90
28773;DHT22;15925;51.222;5.678;2022-10-16T04:52:02;13.60;99.90
28773;DHT22;15925;51.222;5.678;2022-10-16T04:54:27;13.60;99.90
28773;DHT22;15925;51.222;5.678;2022-10-16T04:56:53;13.60;99.90
28773;DHT22;15925;51.222;5.678;2022-10-16T04:59:20;13.60;99.90
28773;DHT22;15925;51.222;5.678;2022-10-16T05:01:46;13.60;99.90
28773;DHT22;15925;51.222;5.678;2022-10-16T05:04:12;13.70;99.90
28773;DHT22;15925;51.222;5.678;2022-10-16T05:06:38;13.60;99.90
28773;DHT22;15925;51.222;5.678;2022-10-16T05:09:05;13.60;99.90
28773;DHT22;15925;51.222;5.678;2022-10-16T05:11:31;13.60;99.90
28773;DHT22;15925;51.222;5.678;2022-10-16T05:13:57;13.60;99.90
28773;DHT22;15925;51.222;5.678;2022-10-16T05:16:23;13.70;99.90
28773;DHT22;15925;51.222;5.678;2022-10-16T05:18:49;13.60;99.90
28773;DHT22;15925;51.222;5.678;2022-10-16T05:21:14;13.60;99.90
28773;DHT22;15925;51.222;5.678;2022-10-16T05:23:40;13.60;99.90
28773;DHT22;15925;51.222;5.678;2022-10-16T05:26:06;13.60;99.90
28773;DHT22;15925;51.222;5.678;2022-10-16T05:28:32;13.70;99.90
28773;DHT22;15925;51.222;5.678;2022-10-16T05:30:57;13.60;99.90
28773;DHT22;15925;51.222;5.678;2022-10-16T05:33:25;13.60;99.90
28773;DHT22;15925;51.222;5.678;2022-10-16T05:35:51;13.70;99.90
28773;DHT22;15925;51.222;5.678;2022-10-16T05:38:18;13.70;99.90
28773;DHT22;15925;51.222;5.678;2022-10-16T05:40:44;13.70;99.90
28773;DHT22;15925;51.222;5.678;2022-10-16T05:43:15;13.70;99.90
28773;DHT22;15925;51.222;5.678;2022-10-16T05:45:41;13.70;99.90
28773;DHT22;15925;51.222;5.678;2022-10-16T05:48:06;13.70;99.90
28773;DHT22;15925;51.222;5.678;2022-10-16T05:50:32;13.70;99.90
28773;DHT22;15925;51.222;5.678;2022-10-16T05:52:58;13.60;99.90
28773;DHT22;15925;51.222;5.678;2022-10-16T05:55:24;13.60;99.90
28773;DHT22;15925;51.222;5.678;2022-10-16T05:57:50;13.60;99.90
28773;DHT22;15925;51.222;5.678;2022-10-16T06:00:15;13.60;99.90
28773;DHT22;15925;51.222;5.678;2022-10-16T06:02:41;13.70;99.90
28773;DHT22;15925;51.222;5.678;2022-10-16T06:05:07;13.70;99.90
28773;DHT22;15925;51.222;5.678;2022-10-16T06:07:36;13.70;99.90
28773;DHT22;15925;51.222;5.678;2022-10-16T06:10:03;13.60;99.90
28773;DHT22;15925;51.222;5.678;2022-10-16T06:12:29;13.60;99.90
28773;DHT22;15925;51.222;5.678;2022-10-16T06:14:55;13.60;99.90
28773;DHT22;15925;51.222;5.678;2022-10-16T06:17:21;13.60;99.90
28773;DHT22;15925;51.222;5.678;2022-10-16T06:19:47;13.60;99.90
28773;DHT22;15925;51.222;5.678;2022-10-16T06:22:13;13.70;99.90
28773;DHT22;15925;51.222;5.678;2022-10-16T06:24:39;13.60;99.90
28773;DHT22;15925;51.222;5.678;2022-10-16T06:27:05;13.60;99.90
28773;DHT22;15925;51.222;5.678;2022-10-16T06:29:30;13.60;99.90
28773;DHT22;15925;51.222;5.678;2022-10-16T06:31:56;13.60;99.90
28773;DHT22;15925;51.222;5.678;2022-10-16T06:34:22;13.60;99.90
28773;DHT22;15925;51.222;5.678;2022-10-16T06:36:48;13.60;99.90
28773;DHT22;15925;51.222;5.678;2022-10-16T06:39:13;13.60;99.90
28773;DHT22;15925;51.222;5.678;2022-10-16T06:41:39;13.70;99.90
28773;DHT22;15925;51.222;5.678;2022-10-16T06:44:28;13.60;99.90
28773;DHT22;15925;51.222;5.678;2022-10-16T06:46:53;13.70;99.90
28773;DHT22;15925;51.222;5.678;2022-10-16T06:49:19;13.70;99.90
28773;DHT22;15925;51.222;5.678;2022-10-16T06:51:48;13.60;99.90
28773;DHT22;15925;51.222;5.678;2022-10-16T06:54:15;13.60;99.90
28773;DHT22;15925;51.222;5.678;2022-10-16T06:56:40;13.60;99.90
28773;DHT22;15925;51.222;5.678;2022-10-16T06:59:06;13.70;99.90
28773;DHT22;15925;51.222;5.678;2022-10-16T07:01:32;13.70;99.90
28773;DHT22;15925;51.222;5.678;2022-10-16T07:03:58;13.70;99.90
28773;DHT22;15925;51.222;5.678;2022-10-16T07:06:26;13.70;99.90
28773;DHT22;15925;51.222;5.678;2022-10-16T07:08:52;13.80;99.90
28773;DHT22;15925;51.222;5.678;2022-10-16T07:11:20;13.80;99.90
28773;DHT22;15925;51.222;5.678;2022-10-16T07:13:48;13.80;99.90
28773;DHT22;15925;51.222;5.678;2022-10-16T07:16:16;13.80;99.90
28773;DHT22;15925;51.222;5.678;2022-10-16T07:18:43;13.90;99.90
28773;DHT22;15925;51.222;5.678;2022-10-16T07:21:18;13.90;99.90
28773;DHT22;15925;51.222;5.678;2022-10-16T07:23:49;13.90;99.90
28773;DHT22;15925;51.222;5.678;2022-10-16T07:26:15;13.90;99.90
28773;DHT22;15925;51.222;5.678;2022-10-16T07:28:43;13.90;99.90
28773;DHT22;15925;51.222;5.678;2022-10-16T07:31:12;14.00;99.90
28773;DHT22;15925;51.222;5.678;2022-10-16T07:33:40;14.00;99.90
28773;DHT22;15925;51.222;5.678;2022-10-16T07:36:07;14.00;99.90
28773;DHT22;15925;51.222;5.678;2022-10-16T07:38:33;14.00;99.90
28773;DHT22;15925;51.222;5.678;2022-10-16T07:41:01;14.00;99.90
28773;DHT22;15925;51.222;5.678;2022-10-16T07:43:27;14.00;99.90
28773;DHT22;15925;51.222;5.678;2022-10-16T07:45:53;14.10;99.90
28773;DHT22;15925;51.222;5.678;2022-10-16T07:48:21;14.10;99.90
28773;DHT22;15925;51.222;5.678;2022-10-16T07:50:50;14.10;99.90
28773;DHT22;15925;51.222;5.678;2022-10-16T07:53:16;14.20;99.90
28773;DHT22;15925;51.222;5.678;2022-10-16T07:55:42;14.20;99.90
28773;DHT22;15925;51.222;5.678;2022-10-16T07:58:08;14.30;99.90
28773;DHT22;15925;51.222;5.678;2022-10-16T08:00:36;14.30;99.90
28773;DHT22;15925;51.222;5.678;2022-10-16T08:03:02;14.40;99.90
28773;DHT22;15925;51.222;5.678;2022-10-16T08:05:32;14.40;99.90
28773;DHT22;15925;51.222;5.678;2022-10-16T08:07:59;14.50;99.90
28773;DHT22;15925;51.222;5.678;2022-10-16T08:10:26;14.60;99.90
28773;DHT22;15925;51.222;5.678;2022-10-16T08:12:52;14.60;99.90
28773;DHT22;15925;51.222;5.678;2022-10-16T08:15:19;14.70;99.90
28773;DHT22;15925;51.222;5.678;2022-10-16T08:17:53;14.80;99.90
28773;DHT22;15925;51.222;5.678;2022-10-16T08:20:20;14.80;99.90
28773;DHT22;15925;51.222;5.678;2022-10-16T08:22:46;14.90;99.90
28773;DHT22;15925;51.222;5.678;2022-10-16T08:25:11;15.00;99.90
28773;DHT22;15925;51.222;5.678;2022-10-16T08:27:37;15.00;99.90
28773;DHT22;15925;51.222;5.678;2022-10-16T08:30:03;15.10;99.90
28773;DHT22;15925;51.222;5.678;2022-10-16T08:32:29;15.10;99.90
28773;DHT22;15925;51.222;5.678;2022-10-16T08:34:55;15.20;99.90
28773;DHT22;15925;51.222;5.678;2022-10-16T08:37:21;15.20;99.90
28773;DHT22;15925;51.222;5.678;2022-10-16T08:39:46;15.30;99.90
28773;DHT22;15925;51.222;5.678;2022-10-16T08:42:21;15.30;99.90
28773;DHT22;15925;51.222;5.678;2022-10-16T08:50:30;15.50;99.90
28773;DHT22;15925;51.222;5.678;2022-10-16T08:52:57;15.60;99.90
28773;DHT22;15925;51.222;5.678;2022-10-16T08:55:34;15.70;99.90
28773;DHT22;15925;51.222;5.678;2022-10-16T08:58:13;15.80;99.90
28773;DHT22;15925;51.222;5.678;2022-10-16T09:00:39;15.80;99.90
28773;DHT22;15925;51.222;5.678;2022-10-16T09:04:03;15.90;99.90
28773;DHT22;15925;51.222;5.678;2022-10-16T09:12:12;16.10;99.90
28773;DHT22;15925;51.222;5.678;2022-10-16T09:19:49;16.40;99.90
28773;DHT22;15925;51.222;5.678;2022-10-16T09:22:18;16.50;99.90
28773;DHT22;15925;51.222;5.678;2022-10-16T09:24:47;16.50;99.90
28773;DHT22;15925;51.222;5.678;2022-10-16T09:27:14;16.60;99.90
28773;DHT22;15925;51.222;5.678;2022-10-16T09:29:40;16.60;99.90
28773;DHT22;15925;51.222;5.678;2022-10-16T09:32:15;16.60;99.90
28773;DHT22;15925;51.222;5.678;2022-10-16T09:34:47;16.70;99.90
28773;DHT22;15925;51.222;5.678;2022-10-16T09:37:17;16.80;99.90
28773;DHT22;15925;51.222;5.678;2022-10-16T09:39:46;16.80;99.90
28773;DHT22;15925;51.222;5.678;2022-10-16T09:42:28;16.90;99.90
28773;DHT22;15925;51.222;5.678;2022-10-16T09:44:56;17.00;99.90
28773;DHT22;15925;51.222;5.678;2022-10-16T09:47:30;17.00;99.90
28773;DHT22;15925;51.222;5.678;2022-10-16T09:52:25;17.10;99.90
28773;DHT22;15925;51.222;5.678;2022-10-16T09:54:52;17.20;99.90
28773;DHT22;15925;51.222;5.678;2022-10-16T09:57:18;17.30;99.90
28773;DHT22;15925;51.222;5.678;2022-10-16T09:59:52;17.30;99.90
28773;DHT22;15925;51.222;5.678;2022-10-16T10:02:21;17.40;99.90
28773;DHT22;15925;51.222;5.678;2022-10-16T10:04:52;17.50;99.90
28773;DHT22;15925;51.222;5.678;2022-10-16T10:07:37;17.40;99.90
28773;DHT22;15925;51.222;5.678;2022-10-16T10:10:18;17.50;99.90
28773;DHT22;15925;51.222;5.678;2022-10-16T10:12:45;17.60;99.90
28773;DHT22;15925;51.222;5.678;2022-10-16T10:15:12;17.60;99.90
28773;DHT22;15925;51.222;5.678;2022-10-16T10:17:52;17.50;99.90
28773;DHT22;15925;51.222;5.678;2022-10-16T10:22:50;17.60;99.90
28773;DHT22;15925;51.222;5.678;2022-10-16T10:25:44;17.70;99.90
28773;DHT22;15925;51.222;5.678;2022-10-16T10:28:29;17.80;99.90
28773;DHT22;15925;51.222;5.678;2022-10-16T10:31:10;17.80;99.90
28773;DHT22;15925;51.222;5.678;2022-10-16T10:36:35;17.90;99.90
28773;DHT22;15925;51.222;5.678;2022-10-16T10:39:36;17.90;99.90
28773;DHT22;15925;51.222;5.678;2022-10-16T10:56:00;18.20;99.90
28773;DHT22;15925;51.222;5.678;2022-10-16T11:01:17;18.20;99.90
28773;DHT22;15925;51.222;5.678;2022-10-16T11:04:06;18.20;99.90
28773;DHT22;15925;51.222;5.678;2022-10-16T11:06:59;18.10;99.90
28773;DHT22;15925;51.222;5.678;2022-10-16T11:14:42;18.10;99.90
28773;DHT22;15925;51.222;5.678;2022-10-16T11:17:27;18.00;99.90
28773;DHT22;15925;51.222;5.678;2022-10-16T11:20:02;18.10;99.90
28773;DHT22;15925;51.222;5.678;2022-10-16T11:22:37;18.20;99.90
28773;DHT22;15925;51.222;5.678;2022-10-16T11:27:53;18.00;99.90
28773;DHT22;15925;51.222;5.678;2022-10-16T11:30:26;18.10;99.90
28773;DHT22;15925;51.222;5.678;2022-10-16T11:36:25;18.30;99.90
28773;DHT22;15925;51.222;5.678;2022-10-16T11:41:34;18.60;99.90
28773;DHT22;15925;51.222;5.678;2022-10-16T11:46:34;18.80;99.90
28773;DHT22;15925;51.222;5.678;2022-10-16T11:49:28;18.90;99.90
28773;DHT22;15925;51.222;5.678;2022-10-16T11:52:03;19.00;99.90
28773;DHT22;15925;51.222;5.678;2022-10-16T11:54:57;19.00;99.90
28773;DHT22;15925;51.222;5.678;2022-10-16T11:57:28;18.90;99.90
28773;DHT22;15925;51.222;5.678;2022-10-16T12:00:04;18.90;99.90
28773;DHT22;15925;51.222;5.678;2022-10-16T12:08:53;19.10;99.90
28773;DHT22;15925;51.222;5.678;2022-10-16T12:16:58;19.20;99.90
28773;DHT22;15925;51.222;5.678;2022-10-16T12:19:27;19.30;99.90
28773;DHT22;15925;51.222;5.678;2022-10-16T12:21:59;19.40;99.90
28773;DHT22;15925;51.222;5.678;2022-10-16T12:24:38;19.30;99.90
28773;DHT22;15925;51.222;5.678;2022-10-16T12:27:30;19.40;99.90
28773;DHT22;15925;51.222;5.678;2022-10-16T12:30:01;19.40;99.90
28773;DHT22;15925;51.222;5.678;2022-10-16T12:32:33;19.40;99.90
28773;DHT22;15925;51.222;5.678;2022-10-16T12:35:03;19.40;99.90
28773;DHT22;15925;51.222;5.678;2022-10-16T12:37:35;19.50;99.90
28773;DHT22;15925;51.222;5.678;2022-10-16T12:40:32;19.50;99.90
28773;DHT22;15925;51.222;5.678;2022-10-16T12:43:10;19.50;99.90
28773;DHT22;15925;51.222;5.678;2022-10-16T12:45:36;19.50;99.90
28773;DHT22;15925;51.222;5.678;2022-10-16T12:48:17;19.50;99.90
28773;DHT22;15925;51.222;5.678;2022-10-16T12:50:44;19.50;99.90
28773;DHT22;15925;51.222;5.678;2022-10-16T12:53:24;19.50;99.90
28773;DHT22;15925;51.222;5.678;2022-10-16T12:58:59;19.30;99.90
28773;DHT22;15925;51.222;5.678;2022-10-16T13:07:01;19.30;99.90
28773;DHT22;15925;51.222;5.678;2022-10-16T13:09:54;19.40;99.90
28773;DHT22;15925;51.222;5.678;2022-10-16T13:21:08;19.30;99.90
28773;DHT22;15925;51.222;5.678;2022-10-16T13:29:09;19.20;99.90
28773;DHT22;15925;51.222;5.678;2022-10-16T13:31:38;19.30;99.90
28773;DHT22;15925;51.222;5.678;2022-10-16T13:34:05;19.20;99.90
28773;DHT22;15925;51.222;5.678;2022-10-16T13:36:46;19.20;99.90
28773;DHT22;15925;51.222;5.678;2022-10-16T13:39:23;19.10;99.90
28773;DHT22;15925;51.222;5.678;2022-10-16T13:42:12;19.10;99.90
28773;DHT22;15925;51.222;5.678;2022-10-16T13:44:48;19.20;99.90
28773;DHT22;15925;51.222;5.678;2022-10-16T13:47:25;19.10;99.90
28773;DHT22;15925;51.222;5.678;2022-10-16T13:50:03;19.20;99.90
28773;DHT22;15925;51.222;5.678;2022-10-16T13:52:29;19.20;99.90
28773;DHT22;15925;51.222;5.678;2022-10-16T13:54:55;19.20;99.90
28773;DHT22;15925;51.222;5.678;2022-10-16T13:57:25;19.20;99.90
28773;DHT22;15925;51.222;5.678;2022-10-16T13:59:51;19.30;99.90
28773;DHT22;15925;51.222;5.678;2022-10-16T14:02:27;19.20;99.90
28773;DHT22;15925;51.222;5.678;2022-10-16T14:04:55;19.20;99.90
28773;DHT22;15925;51.222;5.678;2022-10-16T14:07:31;19.20;99.90
28773;DHT22;15925;51.222;5.678;2022-10-16T14:10:02;19.10;99.90
28773;DHT22;15925;51.222;5.678;2022-10-16T14:12:29;19.20;99.90
28773;DHT22;15925;51.222;5.678;2022-10-16T14:14:55;19.20;99.90
28773;DHT22;15925;51.222;5.678;2022-10-16T14:17:33;19.10;99.90
28773;DHT22;15925;51.222;5.678;2022-10-16T14:20:00;19.10;99.90
28773;DHT22;15925;51.222;5.678;2022-10-16T14:22:33;19.00;99.90
28773;DHT22;15925;51.222;5.678;2022-10-16T14:25:00;19.10;99.90
28773;DHT22;15925;51.222;5.678;2022-10-16T14:30:24;19.10;99.90
28773;DHT22;15925;51.222;5.678;2022-10-16T14:33:05;19.10;99.90
28773;DHT22;15925;51.222;5.678;2022-10-16T14:35:37;19.00;99.90
28773;DHT22;15925;51.222;5.678;2022-10-16T14:38:04;19.10;99.90
28773;DHT22;15925;51.222;5.678;2022-10-16T14:40:36;19.10;99.90
28773;DHT22;15925;51.222;5.678;2022-10-16T14:43:03;19.10;99.90
28773;DHT22;15925;51.222;5.678;2022-10-16T14:45:31;19.10;99.90
28773;DHT22;15925;51.222;5.678;2022-10-16T14:48:04;19.10;99.90
28773;DHT22;15925;51.222;5.678;2022-10-16T14:50:31;19.10;99.90
28773;DHT22;15925;51.222;5.678;2022-10-16T14:52:58;19.10;99.90
28773;DHT22;15925;51.222;5.678;2022-10-16T14:55:25;19.00;99.90
28773;DHT22;15925;51.222;5.678;2022-10-16T14:57:51;19.10;99.90
28773;DHT22;15925;51.222;5.678;2022-10-16T15:00:20;19.10;99.90
28773;DHT22;15925;51.222;5.678;2022-10-16T15:02:48;19.10;99.90
28773;DHT22;15925;51.222;5.678;2022-10-16T15:07:40;19.00;99.90
28773;DHT22;15925;51.222;5.678;2022-10-16T15:10:06;19.00;99.90
28773;DHT22;15925;51.222;5.678;2022-10-16T15:12:32;19.00;99.90
28773;DHT22;15925;51.222;5.678;2022-10-16T15:14:58;19.00;99.90
28773;DHT22;15925;51.222;5.678;2022-10-16T15:17:23;19.00;99.90
28773;DHT22;15925;51.222;5.678;2022-10-16T15:19:49;18.90;99.90
28773;DHT22;15925;51.222;5.678;2022-10-16T15:22:16;18.90;99.90
28773;DHT22;15925;51.222;5.678;2022-10-16T15:24:43;18.90;99.90
28773;DHT22;15925;51.222;5.678;2022-10-16T15:27:08;18.80;99.90
28773;DHT22;15925;51.222;5.678;2022-10-16T15:29:35;18.90;99.90
28773;DHT22;15925;51.222;5.678;2022-10-16T15:32:01;18.80;99.90
28773;DHT22;15925;51.222;5.678;2022-10-16T15:34:27;18.80;99.90
28773;DHT22;15925;51.222;5.678;2022-10-16T15:36:52;18.80;99.90
28773;DHT22;15925;51.222;5.678;2022-10-16T15:39:20;18.70;99.90
28773;DHT22;15925;51.222;5.678;2022-10-16T15:41:47;18.80;99.90
28773;DHT22;15925;51.222;5.678;2022-10-16T15:44:17;18.70;99.90
28773;DHT22;15925;51.222;5.678;2022-10-16T15:46:43;18.70;99.90
28773;DHT22;15925;51.222;5.678;2022-10-16T15:49:10;18.70;99.90
28773;DHT22;15925;51.222;5.678;2022-10-16T15:51:38;18.60;99.90
28773;DHT22;15925;51.222;5.678;2022-10-16T15:54:04;18.60;99.90
28773;DHT22;15925;51.222;5.678;2022-10-16T15:56:31;18.60;99.90
28773;DHT22;15925;51.222;5.678;2022-10-16T15:58:59;18.50;99.90
28773;DHT22;15925;51.222;5.678;2022-10-16T16:01:26;18.50;99.90
28773;DHT22;15925;51.222;5.678;2022-10-16T16:03:52;18.60;99.90
28773;DHT22;15925;51.222;5.678;2022-10-16T16:06:18;18.40;99.90
28773;DHT22;15925;51.222;5.678;2022-10-16T16:08:44;18.40;99.90
28773;DHT22;15925;51.222;5.678;2022-10-16T16:11:11;18.50;99.90
28773;DHT22;15925;51.222;5.678;2022-10-16T16:13:38;18.40;99.90
28773;DHT22;15925;51.222;5.678;2022-10-16T16:16:12;18.30;99.90
28773;DHT22;15925;51.222;5.678;2022-10-16T16:18:38;18.30;99.90
28773;DHT22;15925;51.222;5.678;2022-10-16T16:21:04;18.20;99.90
28773;DHT22;15925;51.222;5.678;2022-10-16T16:23:31;18.20;99.90
28773;DHT22;15925;51.222;5.678;2022-10-16T16:26:28;18.10;99.90
28773;DHT22;15925;51.222;5.678;2022-10-16T16:28:56;18.00;99.90
28773;DHT22;15925;51.222;5.678;2022-10-16T16:31:27;17.90;99.90
28773;DHT22;15925;51.222;5.678;2022-10-16T16:33:53;17.90;99.90
28773;DHT22;15925;51.222;5.678;2022-10-16T16:36:19;17.90;99.90
28773;DHT22;15925;51.222;5.678;2022-10-16T16:38:46;17.90;99.90
28773;DHT22;15925;51.222;5.678;2022-10-16T16:41:15;17.80;99.90
28773;DHT22;15925;51.222;5.678;2022-10-16T16:43:42;17.80;99.90
28773;DHT22;15925;51.222;5.678;2022-10-16T16:46:08;17.70;99.90
28773;DHT22;15925;51.222;5.678;2022-10-16T16:48:34;17.60;99.90
28773;DHT22;15925;51.222;5.678;2022-10-16T16:51:05;17.70;99.90
28773;DHT22;15925;51.222;5.678;2022-10-16T16:53:33;17.60;99.90
28773;DHT22;15925;51.222;5.678;2022-10-16T16:56:04;17.60;99.90
28773;DHT22;15925;51.222;5.678;2022-10-16T16:58:30;17.60;99.90
28773;DHT22;15925;51.222;5.678;2022-10-16T17:00:57;17.50;99.90
28773;DHT22;15925;51.222;5.678;2022-10-16T17:03:34;17.60;99.90
28773;DHT22;15925;51.222;5.678;2022-10-16T17:06:05;17.30;99.90
28773;DHT22;15925;51.222;5.678;2022-10-16T17:08:33;17.30;99.90
28773;DHT22;15925;51.222;5.678;2022-10-16T17:11:00;17.40;99.90
28773;DHT22;15925;51.222;5.678;2022-10-16T17:13:28;17.20;99.90
28773;DHT22;15925;51.222;5.678;2022-10-16T17:15:54;17.30;99.90
28773;DHT22;15925;51.222;5.678;2022-10-16T17:18:22;17.20;99.90
28773;DHT22;15925;51.222;5.678;2022-10-16T17:20:49;17.20;99.90
28773;DHT22;15925;51.222;5.678;2022-10-16T17:23:17;17.20;99.90
28773;DHT22;15925;51.222;5.678;2022-10-16T17:25:43;17.20;99.90
28773;DHT22;15925;51.222;5.678;2022-10-16T17:28:10;17.20;99.90
28773;DHT22;15925;51.222;5.678;2022-10-16T17:30:37;17.20;99.90
28773;DHT22;15925;51.222;5.678;2022-10-16T17:33:04;17.20;99.90
28773;DHT22;15925;51.222;5.678;2022-10-16T17:35:37;17.20;99.90
28773;DHT22;15925;51.222;5.678;2022-10-16T17:38:03;17.10;99.90